createdAt,value
2019-05-03T00:01:16.514Z,101209.65
2019-05-03T00:03:42.592Z,101210.13
2019-05-03T00:06:08.739Z,101211.39
2019-05-03T00:08:34.720Z,101220.68
2019-05-03T00:11:02.307Z,101223.52
2019-05-03T00:13:28.683Z,101217.94
2019-05-03T00:16:12.241Z,101215.11
2019-05-03T00:18:38.442Z,101211.81
2019-05-03T00:21:04.714Z,101220.92
2019-05-03T00:23:32.449Z,101212.92
2019-05-03T00:25:58.834Z,101210.59
2019-05-03T00:28:24.907Z,101215.45
2019-05-03T00:30:51.879Z,101207.52
2019-05-03T00:33:18.238Z,101205.33
2019-05-03T00:36:02.991Z,101213.33
2019-05-03T00:38:30.003Z,101213.13
2019-05-03T00:40:56.119Z,101221.81
2019-05-03T00:43:22.313Z,101214.66
2019-05-03T00:45:48.382Z,101219.14
2019-05-03T00:48:14.371Z,101215.97
2019-05-03T00:50:42.455Z,101217.39
2019-05-03T00:53:08.418Z,101219.08
2019-05-03T00:55:34.415Z,101219.42
2019-05-03T00:58:02.333Z,101219.75
2019-05-03T01:00:28.567Z,101218.14
2019-05-03T01:02:54.582Z,101222.39
2019-05-03T01:05:22.494Z,101219.34
2019-05-03T01:07:48.548Z,101223.02
2019-05-03T01:10:14.666Z,101226.36
2019-05-03T01:12:41.661Z,101228.59
2019-05-03T01:15:12.325Z,101227.70
2019-05-03T01:17:38.459Z,101232.48
2019-05-03T01:20:05.701Z,101235.41
2019-05-03T01:22:32.229Z,101227.55
2019-05-03T01:24:58.474Z,101227.82
2019-05-03T01:27:24.602Z,101237.64
2019-05-03T01:29:51.992Z,101242.01
2019-05-03T01:32:18.133Z,101232.57
2019-05-03T01:34:44.153Z,101228.20
2019-05-03T01:37:11.938Z,101232.59
2019-05-03T01:39:38.081Z,101227.63
2019-05-03T01:42:04.180Z,101235.58
2019-05-03T01:44:30.094Z,101233.70
2019-05-03T01:46:57.903Z,101232.76
2019-05-03T01:49:37.926Z,101244.42
2019-05-03T01:52:05.733Z,101228.77
2019-05-03T01:54:32.165Z,101240.23
2019-05-03T01:56:59.206Z,101240.50
2019-05-03T01:59:25.288Z,101237.98
2019-05-03T02:02:07.958Z,101241.35
2019-05-03T02:04:35.770Z,101251.14
2019-05-03T02:07:02.280Z,101238.77
2019-05-03T02:09:28.773Z,101235.41
2019-05-03T02:11:54.676Z,101241.13
2019-05-03T02:14:22.196Z,101241.73
2019-05-03T02:16:48.186Z,101231.18
2019-05-03T02:19:14.280Z,101242.11
2019-05-03T02:21:41.681Z,101239.23
2019-05-03T02:24:07.867Z,101236.50
2019-05-03T02:26:33.892Z,101241.20
2019-05-03T02:29:01.726Z,101255.09
2019-05-03T02:31:27.896Z,101246.64
2019-05-03T02:33:53.892Z,101260.22
2019-05-03T02:36:23.030Z,101254.16
2019-05-03T02:38:47.750Z,101253.11
2019-05-03T02:41:14.593Z,101258.80
2019-05-03T02:43:45.555Z,101251.78
2019-05-03T02:46:28.245Z,101257.37
2019-05-03T02:49:15.378Z,101257.63
2019-05-03T02:51:41.436Z,101253.50
2019-05-03T02:54:07.329Z,101262.46
2019-05-03T02:56:35.258Z,101253.90
2019-05-03T02:59:01.144Z,101250.17
2019-05-03T03:01:27.843Z,101256.89
2019-05-03T03:03:56.015Z,101251.80
2019-05-03T03:06:26.544Z,101264.64
2019-05-03T03:08:52.572Z,101253.94
2019-05-03T03:11:20.373Z,101257.91
2019-05-03T03:13:47.088Z,101265.12
2019-05-03T03:16:15.216Z,101265.88
2019-05-03T03:18:41.131Z,101271.69
2019-05-03T03:21:11.241Z,101261.52
2019-05-03T03:23:58.711Z,101263.48
2019-05-03T03:26:37.223Z,101279.54
2019-05-03T03:29:02.042Z,101276.05
2019-05-03T03:31:37.811Z,101278.53
2019-05-03T03:34:08.351Z,101274.70
2019-05-03T03:36:54.494Z,101288.61
2019-05-03T03:39:06.278Z,101282.88
2019-05-03T03:41:32.613Z,101274.19
2019-05-03T03:44:01.502Z,101283.64
2019-05-03T03:46:27.663Z,101285.23
2019-05-03T03:48:55.855Z,101282.27
2019-05-03T03:51:22.526Z,101289.22
2019-05-03T03:53:51.993Z,101304.77
2019-05-03T03:56:20.041Z,101295.34
2019-05-03T03:58:46.613Z,101300.27
2019-05-03T04:01:15.534Z,101295.28
2019-05-03T04:03:40.980Z,101301.77
2019-05-03T04:06:07.532Z,101293.32
2019-05-03T04:08:36.124Z,101306.88
2019-05-03T04:11:02.740Z,101306.49
2019-05-03T04:13:28.912Z,101311.07
2019-05-03T04:15:59.815Z,101316.44
2019-05-03T04:18:37.252Z,101322.02
2019-05-03T04:21:05.559Z,101324.64
2019-05-03T04:23:32.178Z,101328.98
2019-05-03T04:25:58.502Z,101328.96
2019-05-03T04:28:25.692Z,101337.16
2019-05-03T04:30:51.720Z,101338.68
2019-05-03T04:33:17.635Z,101340.88
2019-05-03T04:35:46.304Z,101348.56
2019-05-03T04:38:11.345Z,101352.06
2019-05-03T04:40:37.297Z,101345.13
2019-05-03T04:43:06.077Z,101347.70
2019-05-03T04:45:31.890Z,101345.98
2019-05-03T04:47:57.940Z,101354.19
2019-05-03T04:50:25.507Z,101359.30
2019-05-03T04:52:51.824Z,101364.00
2019-05-03T04:55:17.903Z,101363.75
2019-05-03T04:57:46.799Z,101357.55
2019-05-03T05:00:11.973Z,101367.62
2019-05-03T05:02:37.910Z,101361.05
2019-05-03T05:05:05.974Z,101371.84
2019-05-03T05:07:32.048Z,101371.20
2019-05-03T05:09:57.916Z,101372.70
2019-05-03T05:12:25.244Z,101372.70
2019-05-03T05:14:51.348Z,101371.46
2019-05-03T05:17:19.112Z,101374.31
2019-05-03T05:19:49.667Z,101376.43
2019-05-03T05:22:17.528Z,101384.25
2019-05-03T05:24:44.991Z,101389.61
2019-05-03T05:27:15.705Z,101388.00
2019-05-03T05:29:41.558Z,101387.48
2019-05-03T05:32:07.422Z,101382.39
2019-05-03T05:34:34.918Z,101384.86
2019-05-03T05:37:01.010Z,101381.27
2019-05-03T05:39:26.867Z,101393.70
2019-05-03T05:41:52.717Z,101390.73
2019-05-03T05:44:19.598Z,101393.82
2019-05-03T05:47:04.706Z,101401.77
2019-05-03T05:49:50.428Z,101399.92
2019-05-03T05:52:16.278Z,101396.55
2019-05-03T05:54:45.564Z,101401.15
2019-05-03T05:57:16.392Z,101401.15
2019-05-03T05:59:46.686Z,101410.07
2019-05-03T06:02:14.947Z,101415.59
2019-05-03T06:04:40.524Z,101420.63
2019-05-03T06:07:25.047Z,101415.47
2019-05-03T06:10:01.951Z,101412.43
2019-05-03T06:12:46.175Z,101418.88
2019-05-03T06:15:15.020Z,101426.59
2019-05-03T06:17:52.008Z,101419.33
2019-05-03T06:20:24.469Z,101420.25
2019-05-03T06:22:52.261Z,101416.66
2019-05-03T06:25:20.023Z,101414.17
2019-05-03T06:27:45.887Z,101421.62
2019-05-03T06:30:16.520Z,101414.16
2019-05-03T06:32:42.390Z,101415.89
2019-05-03T06:35:08.561Z,101419.89
2019-05-03T06:37:39.202Z,101412.20
2019-05-03T06:40:06.159Z,101409.59
2019-05-03T06:42:32.345Z,101415.67
2019-05-03T06:45:05.869Z,101410.32
2019-05-03T06:47:28.527Z,101411.10
2019-05-03T06:49:55.229Z,101414.04
2019-05-03T06:52:27.558Z,101411.44
2019-05-03T06:54:49.013Z,101416.94
2019-05-03T06:57:16.579Z,101421.31
2019-05-03T06:59:45.159Z,101411.22
2019-05-03T07:02:29.408Z,101417.44
2019-05-03T07:04:57.165Z,101418.41
2019-05-03T07:07:27.913Z,101415.88
2019-05-03T07:10:11.819Z,101415.73
2019-05-03T07:12:56.352Z,101427.24
2019-05-03T07:15:22.215Z,101426.14
2019-05-03T07:17:48.076Z,101419.30
2019-05-03T07:20:14.836Z,101422.95
2019-05-03T07:22:40.707Z,101431.13
2019-05-03T07:25:06.693Z,101440.80
2019-05-03T07:27:32.543Z,101426.05
2019-05-03T07:29:58.426Z,101422.31
2019-05-03T07:32:24.793Z,101440.13
2019-05-03T07:34:50.879Z,101430.72
2019-05-03T07:37:16.802Z,101429.28
2019-05-03T07:39:42.664Z,101439.45
2019-05-03T07:42:08.542Z,101436.12
2019-05-03T07:44:34.912Z,101428.14
2019-05-03T07:47:01.750Z,101432.69
2019-05-03T07:49:27.765Z,101429.78
2019-05-03T07:51:55.321Z,101429.19
2019-05-03T07:54:21.385Z,101426.64
2019-05-03T07:56:57.985Z,101432.05
2019-05-03T07:59:25.096Z,101441.34
2019-05-03T08:01:54.625Z,101443.06
2019-05-03T08:04:20.630Z,101443.53
2019-05-03T08:06:46.485Z,101436.52
2019-05-03T08:09:12.348Z,101437.02
2019-05-03T08:11:38.217Z,101443.34
2019-05-03T08:14:05.029Z,101430.58
2019-05-03T08:16:30.937Z,101422.85
2019-05-03T08:18:56.823Z,101431.06
2019-05-03T08:21:22.699Z,101424.11
2019-05-03T08:23:48.582Z,101410.05
2019-05-03T08:26:15.282Z,101417.38
2019-05-03T08:28:41.387Z,101421.27
2019-05-03T08:31:26.554Z,101406.55
2019-05-03T08:34:06.199Z,101410.46
2019-05-03T08:36:50.849Z,101410.13
2019-05-03T08:39:16.753Z,101407.87
2019-05-03T08:41:44.511Z,101416.40
2019-05-03T08:44:10.361Z,101424.72
2019-05-03T08:46:36.239Z,101419.54
2019-05-03T08:49:02.195Z,101417.98
2019-05-03T08:51:28.070Z,101413.88
2019-05-03T08:53:55.966Z,101415.26
2019-05-03T08:56:21.693Z,101415.43
2019-05-03T08:58:47.540Z,101416.03
2019-05-03T09:01:14.768Z,101417.71
2019-05-03T09:03:40.861Z,101420.56
2019-05-03T09:06:06.725Z,101416.84
2019-05-03T09:08:35.106Z,101409.50
2019-05-03T09:11:02.243Z,101404.98
2019-05-03T09:13:47.933Z,101397.11
2019-05-03T09:16:14.743Z,101406.45
2019-05-03T09:18:40.823Z,101401.69
2019-05-03T09:21:06.686Z,101402.20
2019-05-03T09:23:32.549Z,101408.50
2019-05-03T09:25:58.396Z,101404.92
2019-05-03T09:28:26.474Z,101416.14
2019-05-03T09:30:52.035Z,101410.94
2019-05-03T09:33:18.179Z,101403.60
2019-05-03T09:35:45.735Z,101413.25
2019-05-03T09:38:11.785Z,101413.56
2019-05-03T09:40:37.695Z,101408.81
2019-05-03T09:43:04.555Z,101409.23
2019-05-03T09:45:30.605Z,101405.00
2019-05-03T09:47:56.505Z,101388.53
2019-05-03T09:50:22.408Z,101397.79
2019-05-03T09:52:48.296Z,101395.24
2019-05-03T09:55:16.041Z,101395.64
2019-05-03T09:57:51.328Z,101401.50
2019-05-03T10:00:17.936Z,101390.09
2019-05-03T10:02:45.026Z,101398.10
2019-05-03T10:05:11.458Z,101391.09
2019-05-03T10:07:37.311Z,101397.52
2019-05-03T10:10:06.894Z,101405.19
2019-05-03T10:12:32.830Z,101391.70
2019-05-03T10:14:58.684Z,101390.70
2019-05-03T10:17:35.360Z,101389.59
2019-05-03T10:20:03.158Z,101389.33
2019-05-03T10:22:29.015Z,101396.13
2019-05-03T10:24:55.098Z,101394.99
2019-05-03T10:27:20.967Z,101396.97
2019-05-03T10:29:46.823Z,101398.73
2019-05-03T10:32:31.115Z,101399.97
2019-05-03T10:35:01.682Z,101402.80
2019-05-03T10:37:31.324Z,101397.36
2019-05-03T10:40:01.264Z,101401.24
2019-05-03T10:42:27.113Z,101396.11
2019-05-03T10:44:55.432Z,101409.35
2019-05-03T10:47:20.750Z,101397.92
2019-05-03T10:49:46.622Z,101392.24
2019-05-03T10:52:15.027Z,101389.49
2019-05-03T10:54:40.926Z,101389.40
2019-05-03T10:57:08.690Z,101388.44
2019-05-03T10:59:35.584Z,101380.55
2019-05-03T11:02:12.766Z,101384.09
2019-05-03T11:04:38.633Z,101386.95
2019-05-03T11:07:05.479Z,101384.72
2019-05-03T11:09:31.566Z,101383.36
2019-05-03T11:11:59.335Z,101380.24
2019-05-03T11:14:25.561Z,101374.20
2019-05-03T11:16:51.482Z,101379.17
2019-05-03T11:19:17.345Z,101379.71
2019-05-03T11:21:45.315Z,101369.44
2019-05-03T11:24:10.951Z,101371.59
2019-05-03T11:26:37.128Z,101368.17
2019-05-03T11:29:05.011Z,101367.65
2019-05-03T11:31:47.976Z,101351.14
2019-05-03T11:34:32.423Z,101348.34
2019-05-03T11:37:16.916Z,101349.55
2019-05-03T11:39:45.080Z,101350.18
2019-05-03T11:42:10.654Z,101354.20
2019-05-03T11:44:39.365Z,101353.70
2019-05-03T11:47:06.928Z,101358.63
2019-05-03T11:49:34.495Z,101352.08
2019-05-03T11:52:00.544Z,101347.64
2019-05-03T11:54:26.416Z,101349.91
2019-05-03T11:56:52.565Z,101367.27
2019-05-03T11:59:18.423Z,101345.86
2019-05-03T12:02:04.859Z,101343.88
2019-05-03T12:04:31.232Z,101347.73
2019-05-03T12:06:57.228Z,101349.06
2019-05-03T12:09:23.102Z,101351.97
2019-05-03T12:11:48.965Z,101346.00
2019-05-03T12:14:15.497Z,101354.39
2019-05-03T12:17:17.294Z,101354.83
2019-05-03T12:19:18.062Z,101351.61
2019-05-03T12:21:41.947Z,101343.91
2019-05-03T12:24:08.896Z,101353.25
2019-05-03T12:26:43.469Z,101356.67
2019-05-03T12:29:08.799Z,101348.36
2019-05-03T12:31:40.233Z,101341.86
2019-05-03T12:34:02.742Z,101347.73
2019-05-03T12:36:28.600Z,101347.58
2019-05-03T12:38:54.880Z,101362.16
2019-05-03T12:41:20.817Z,101366.47
2019-05-03T12:43:46.676Z,101361.11
2019-05-03T12:46:12.547Z,101354.55
2019-05-03T12:48:38.389Z,101359.31
2019-05-03T12:51:06.420Z,101350.58
2019-05-03T12:53:32.817Z,101349.98
2019-05-03T12:55:58.697Z,101356.58
2019-05-03T12:58:26.465Z,101365.52
2019-05-03T13:00:55.670Z,101359.17
2019-05-03T13:03:29.245Z,101363.78
2019-05-03T13:05:55.601Z,101363.59
2019-05-03T13:08:30.503Z,101361.89
2019-05-03T13:10:56.369Z,101366.27
2019-05-03T13:13:22.226Z,101353.39
2019-05-03T13:15:48.077Z,101354.47
2019-05-03T13:18:15.699Z,101351.80
2019-05-03T13:20:41.709Z,101365.37
2019-05-03T13:23:07.581Z,101356.13
2019-05-03T13:25:35.478Z,101347.11
2019-05-03T13:28:01.202Z,101354.47
2019-05-03T13:30:27.068Z,101347.30
2019-05-03T13:32:54.803Z,101345.42
2019-05-03T13:35:20.710Z,101340.92
2019-05-03T13:37:46.579Z,101344.84
2019-05-03T13:40:12.548Z,101342.78
2019-05-03T13:42:38.406Z,101347.83
2019-05-03T13:45:05.666Z,101348.75
2019-05-03T13:47:31.533Z,101351.80
2019-05-03T13:49:57.392Z,101348.52
2019-05-03T13:52:25.095Z,101342.73
2019-05-03T13:54:51.020Z,101349.05
2019-05-03T13:57:16.891Z,101333.50
2019-05-03T13:59:44.693Z,101336.17
2019-05-03T14:02:15.308Z,101333.73
2019-05-03T14:04:49.443Z,101337.47
2019-05-03T14:07:06.030Z,101328.48
2019-05-03T14:09:32.109Z,101340.73
2019-05-03T14:11:58.052Z,101329.53
2019-05-03T14:14:25.711Z,101334.95
2019-05-03T14:16:51.675Z,101337.23
2019-05-03T14:19:25.347Z,101340.21
2019-05-03T14:21:55.786Z,101332.67
2019-05-03T14:24:21.617Z,101332.38
2019-05-03T14:26:47.473Z,101319.39
2019-05-03T14:29:14.868Z,101322.77
2019-05-03T14:31:41.056Z,101318.65
2019-05-03T14:34:06.930Z,101323.92
2019-05-03T14:36:32.774Z,101317.09
2019-05-03T14:38:58.643Z,101315.36
2019-05-03T14:41:25.402Z,101312.19
2019-05-03T14:43:51.565Z,101320.76
2019-05-03T14:46:29.205Z,101310.67
2019-05-03T14:48:45.825Z,101318.82
2019-05-03T14:51:11.882Z,101315.44
2019-05-03T14:53:37.884Z,101317.24
2019-05-03T14:56:07.855Z,101314.21
2019-05-03T14:58:41.490Z,101312.38
2019-05-03T15:01:18.344Z,101308.02
2019-05-03T15:03:44.196Z,101312.16
2019-05-03T15:06:10.050Z,101304.61
2019-05-03T15:08:35.944Z,101294.33
2019-05-03T15:11:01.919Z,101294.33
2019-05-03T15:13:27.755Z,101298.74
2019-05-03T15:15:54.678Z,101309.78
2019-05-03T15:18:20.793Z,101311.36
2019-05-03T15:20:46.638Z,101300.39
2019-05-03T15:23:14.705Z,101301.59
2019-05-03T15:25:40.873Z,101285.69
2019-05-03T15:28:06.786Z,101286.61
2019-05-03T15:30:32.641Z,101282.42
2019-05-03T15:33:00.906Z,101285.73
2019-05-03T15:35:26.280Z,101285.88
2019-05-03T15:37:52.131Z,101283.65
2019-05-03T15:40:18.000Z,101282.84
2019-05-03T15:42:45.772Z,101282.13
2019-05-03T15:48:35.154Z,101275.13
2019-05-03T15:51:01.147Z,101278.72
2019-05-03T15:53:27.002Z,101283.56
2019-05-03T15:55:54.843Z,101267.11
2019-05-03T15:58:20.610Z,101268.93
2019-05-03T16:00:46.800Z,101273.74
2019-05-03T16:03:14.430Z,101275.03
2019-05-03T16:05:40.418Z,101264.92
2019-05-03T16:08:06.269Z,101258.56
2019-05-03T16:10:32.137Z,101255.98
2019-05-03T16:12:57.989Z,101259.02
2019-05-03T16:15:24.620Z,101263.68
2019-05-03T16:17:50.641Z,101252.79
2019-05-03T16:20:16.515Z,101244.47
2019-05-03T16:22:42.392Z,101241.91
2019-05-03T16:25:09.082Z,101254.23
2019-05-03T16:27:36.838Z,101241.97
2019-05-03T16:30:07.599Z,101249.94
2019-05-03T16:32:34.669Z,101244.85
2019-05-03T16:35:01.226Z,101246.09
2019-05-03T16:37:27.098Z,101243.09
2019-05-03T16:39:55.044Z,101245.83
2019-05-03T16:42:20.716Z,101243.52
2019-05-03T16:44:46.585Z,101249.42
2019-05-03T16:47:12.464Z,101246.82
2019-05-03T16:49:38.556Z,101249.19
2019-05-03T16:52:05.635Z,101258.48
2019-05-03T16:54:31.582Z,101252.59
2019-05-03T16:56:57.442Z,101253.25
2019-05-03T16:59:24.745Z,101241.30
2019-05-03T17:01:50.770Z,101244.28
2019-05-03T17:04:27.696Z,101240.87
2019-05-03T17:07:10.710Z,101251.73
2019-05-03T17:09:50.411Z,101246.41
2019-05-03T17:12:30.261Z,101247.16
2019-05-03T17:14:56.992Z,101241.20
2019-05-03T17:17:25.112Z,101238.12
2019-05-03T17:19:50.831Z,101229.24
2019-05-03T17:22:17.414Z,101235.77
2019-05-03T17:24:44.474Z,101233.41
2019-05-03T17:27:10.329Z,101234.67
2019-05-03T17:29:36.221Z,101222.21
2019-05-03T17:32:02.085Z,101222.21
2019-05-03T17:34:27.943Z,101226.50
2019-05-03T17:36:54.456Z,101236.19
2019-05-03T17:39:38.836Z,101231.45
2019-05-03T17:42:15.814Z,101232.64
2019-05-03T17:44:46.473Z,101223.63
2019-05-03T17:47:12.320Z,101235.09
2019-05-03T17:49:38.202Z,101228.62
2019-05-03T17:52:06.001Z,101225.28
2019-05-03T17:54:35.663Z,101226.92
2019-05-03T17:57:21.669Z,101220.69
2019-05-03T18:00:06.481Z,101216.72
2019-05-03T18:02:37.065Z,101223.77
2019-05-03T18:05:22.816Z,101206.59
2019-05-03T18:07:56.674Z,101213.98
2019-05-03T18:10:24.375Z,101209.36
2019-05-03T18:12:50.299Z,101223.53
2019-05-03T18:15:16.156Z,101211.17
2019-05-03T18:17:42.011Z,101210.45
2019-05-03T18:20:08.068Z,101206.53
2019-05-03T18:22:33.932Z,101209.45
2019-05-03T18:24:59.785Z,101217.92
2019-05-03T18:27:25.651Z,101210.80
2019-05-03T18:29:51.515Z,101211.97
2019-05-03T18:32:17.380Z,101219.00
2019-05-03T18:34:45.183Z,101214.99
2019-05-03T18:37:11.014Z,101217.92
2019-05-03T18:39:36.874Z,101217.82
2019-05-03T18:42:04.967Z,101218.72
2019-05-03T18:44:34.557Z,101221.67
2019-05-03T18:47:05.477Z,101212.33
2019-05-03T18:49:31.445Z,101220.69
2019-05-03T18:51:57.337Z,101225.72
2019-05-03T18:54:24.607Z,101215.90
2019-05-03T18:56:50.640Z,101218.39
2019-05-03T18:59:16.502Z,101210.29
2019-05-03T19:01:45.038Z,101218.53
2019-05-03T19:04:14.715Z,101212.56
2019-05-03T19:06:40.859Z,101215.76
2019-05-03T19:09:11.388Z,101205.33
2019-05-03T19:11:39.141Z,101212.17
2019-05-03T19:14:09.481Z,101221.50
2019-05-03T19:16:45.407Z,101224.38
2019-05-03T19:19:12.369Z,101227.01
2019-05-03T19:21:38.223Z,101229.61
2019-05-03T19:24:04.869Z,101223.52
2019-05-03T19:26:31.070Z,101220.23
2019-05-03T19:28:56.929Z,101224.79
2019-05-03T19:31:25.103Z,101227.02
2019-05-03T19:33:51.163Z,101221.95
2019-05-03T19:36:17.035Z,101228.48
2019-05-03T19:38:42.889Z,101213.20
2019-05-03T19:41:08.744Z,101212.65
2019-05-03T19:43:35.549Z,101213.95
2019-05-03T19:46:01.674Z,101212.70
2019-05-03T19:48:27.533Z,101205.41
2019-05-03T19:50:54.978Z,101205.41
2019-05-03T19:53:28.541Z,101209.80
2019-05-03T19:55:55.352Z,101213.59
2019-05-03T19:58:21.257Z,101210.61
2019-05-03T20:00:49.009Z,101204.14
2019-05-03T20:03:35.125Z,101208.48
2019-05-03T20:06:04.851Z,101203.53
2019-05-03T20:08:41.587Z,101204.01
2019-05-03T20:11:17.284Z,101203.63
2019-05-03T20:13:45.182Z,101206.20
2019-05-03T20:16:11.117Z,101197.91
2019-05-03T20:18:36.969Z,101202.13
2019-05-03T20:21:04.359Z,101200.95
2019-05-03T20:23:30.312Z,101197.81
2019-05-03T20:25:56.718Z,101199.83
2019-05-03T20:28:24.606Z,101194.47
2019-05-03T20:30:50.342Z,101184.77
2019-05-03T20:33:16.195Z,101193.08
2019-05-03T20:35:42.051Z,101193.22
2019-05-03T20:38:07.919Z,101189.36
2019-05-03T20:40:35.074Z,101195.48
2019-05-03T20:43:05.474Z,101194.08
2019-05-03T20:45:36.045Z,101192.24
2019-05-03T20:48:02.886Z,101188.17
2019-05-03T20:50:28.746Z,101195.22
2019-05-03T20:52:55.069Z,101191.75
2019-05-03T20:55:21.012Z,101190.64
2019-05-03T20:57:46.870Z,101194.23
2019-05-03T21:00:17.065Z,101200.45
2019-05-03T21:02:51.594Z,101195.74
2019-05-03T21:05:24.666Z,101200.72
2019-05-03T21:07:40.249Z,101193.77
2019-05-03T21:10:07.282Z,101198.48
2019-05-03T21:12:34.661Z,101197.24
2019-05-03T21:15:01.561Z,101185.94
2019-05-03T21:17:35.216Z,101187.30
2019-05-03T21:20:02.994Z,101192.52
2019-05-03T21:22:30.483Z,101187.14
2019-05-03T21:24:58.249Z,101176.14
2019-05-03T21:27:24.635Z,101173.67
2019-05-03T21:29:51.368Z,101175.03
2019-05-03T21:32:17.644Z,101172.91
2019-05-03T21:34:45.148Z,101182.71
2019-05-03T21:37:11.081Z,101183.56
2019-05-03T21:39:36.938Z,101163.48
2019-05-03T21:42:04.631Z,101159.64
2019-05-03T21:44:31.685Z,101160.88
2019-05-03T21:46:59.445Z,101153.93
2019-05-03T21:49:27.280Z,101152.19
2019-05-03T21:51:53.642Z,101153.30
2019-05-03T21:54:20.594Z,101155.17
2019-05-03T21:56:46.444Z,101159.00
2019-05-03T21:59:12.314Z,101155.64
2019-05-03T22:01:40.079Z,101151.96
2019-05-03T22:04:05.938Z,101155.17
2019-05-03T22:06:31.813Z,101155.64
2019-05-03T22:08:58.383Z,101152.91
2019-05-03T22:11:25.189Z,101149.06
2019-05-03T22:13:54.273Z,101149.67
2019-05-03T22:16:24.621Z,101155.63
2019-05-03T22:18:50.628Z,101151.08
2019-05-03T22:21:27.062Z,101154.53
2019-05-03T22:24:09.923Z,101140.50
2019-05-03T22:26:54.341Z,101145.17
2019-05-03T22:29:20.336Z,101143.09
2019-05-03T22:31:46.406Z,101144.45
2019-05-03T22:34:12.292Z,101137.11
2019-05-03T22:36:38.158Z,101142.25
2019-05-03T22:39:05.353Z,101132.40
2019-05-03T22:41:31.217Z,101139.59
2019-05-03T22:43:57.073Z,101139.13
2019-05-03T22:46:24.826Z,101141.59
2019-05-03T22:48:50.718Z,101140.42
2019-05-03T22:51:16.581Z,101127.77
2019-05-03T22:53:42.442Z,101131.65
2019-05-03T22:56:08.298Z,101147.88
2019-05-03T22:58:35.470Z,101139.68
2019-05-03T23:01:01.526Z,101134.58
2019-05-03T23:03:29.292Z,101141.18
2019-05-03T23:05:55.137Z,101137.41
2019-05-03T23:08:21.025Z,101127.89
2019-05-03T23:10:46.886Z,101130.48
2019-05-03T23:13:12.742Z,101131.65
2019-05-03T23:15:38.604Z,101137.18
2019-05-03T23:18:04.974Z,101136.55
2019-05-03T23:20:34.458Z,101135.09
2019-05-03T23:23:00.480Z,101145.97
2019-05-03T23:25:26.337Z,101136.03
2019-05-03T23:27:52.202Z,101133.05
2019-05-03T23:30:18.074Z,101144.93
2019-05-03T23:32:45.330Z,101142.90
2019-05-03T23:35:11.306Z,101133.22
2019-05-03T23:37:37.193Z,101136.67
2019-05-03T23:40:06.390Z,101127.73
2019-05-03T23:42:32.244Z,101125.16
2019-05-03T23:44:58.111Z,101118.70
2019-05-03T23:47:31.929Z,101128.24
2019-05-03T23:49:57.782Z,101125.92
2019-05-03T23:52:25.767Z,101135.47
2019-05-03T23:54:52.141Z,101128.50
2019-05-03T23:57:18.023Z,101116.96
2019-05-03T23:59:44.947Z,101121.00
